sensor_id;sensor_type;location;lat;lon;timestamp;P1;durP1;ratioP1;P2;durP2;ratioP2
18286;SDS011;9269;50.838;12.094;2022-11-15T00:01:17;18.77;;;13.50;;
18286;SDS011;9269;50.838;12.094;2022-11-15T00:03:50;17.90;;;13.47;;
18286;SDS011;9269;50.838;12.094;2022-11-15T00:06:20;19.60;;;13.50;;
18286;SDS011;9269;50.838;12.094;2022-11-15T00:08:49;16.60;;;12.73;;
18286;SDS011;9269;50.838;12.094;2022-11-15T00:11:17;17.70;;;13.80;;
18286;SDS011;9269;50.838;12.094;2022-11-15T00:13:45;20.03;;;14.60;;
18286;SDS011;9269;50.838;12.094;2022-11-15T00:16:14;19.37;;;14.53;;
18286;SDS011;9269;50.838;12.094;2022-11-15T00:18:42;17.70;;;13.23;;
18286;SDS011;9269;50.838;12.094;2022-11-15T00:21:16;21.10;;;13.50;;
18286;SDS011;9269;50.838;12.094;2022-11-15T00:23:47;20.10;;;14.90;;
18286;SDS011;9269;50.838;12.094;2022-11-15T00:26:15;19.60;;;14.83;;
18286;SDS011;9269;50.838;12.094;2022-11-15T00:28:44;20.80;;;14.47;;
18286;SDS011;9269;50.838;12.094;2022-11-15T00:31:13;18.67;;;14.03;;
18286;SDS011;9269;50.838;12.094;2022-11-15T00:33:42;18.50;;;14.17;;
18286;SDS011;9269;50.838;12.094;2022-11-15T00:36:11;24.47;;;16.07;;
18286;SDS011;9269;50.838;12.094;2022-11-15T00:38:40;16.80;;;13.57;;
18286;SDS011;9269;50.838;12.094;2022-11-15T00:41:10;22.03;;;15.33;;
18286;SDS011;9269;50.838;12.094;2022-11-15T00:43:39;17.27;;;13.63;;
18286;SDS011;9269;50.838;12.094;2022-11-15T00:46:10;18.63;;;13.50;;
18286;SDS011;9269;50.838;12.094;2022-11-15T00:48:39;17.00;;;13.70;;
18286;SDS011;9269;50.838;12.094;2022-11-15T00:51:07;18.30;;;13.47;;
18286;SDS011;9269;50.838;12.094;2022-11-15T00:53:36;17.47;;;13.07;;
18286;SDS011;9269;50.838;12.094;2022-11-15T00:56:04;17.03;;;13.37;;
18286;SDS011;9269;50.838;12.094;2022-11-15T00:58:35;17.50;;;13.83;;
18286;SDS011;9269;50.838;12.094;2022-11-15T01:01:07;16.87;;;13.17;;
18286;SDS011;9269;50.838;12.094;2022-11-15T01:03:37;15.97;;;13.17;;
18286;SDS011;9269;50.838;12.094;2022-11-15T01:06:07;16.10;;;12.33;;
18286;SDS011;9269;50.838;12.094;2022-11-15T01:08:37;17.83;;;12.90;;
18286;SDS011;9269;50.838;12.094;2022-11-15T01:11:07;16.10;;;12.47;;
18286;SDS011;9269;50.838;12.094;2022-11-15T01:13:39;17.53;;;13.73;;
18286;SDS011;9269;50.838;12.094;2022-11-15T01:16:08;16.93;;;13.73;;
18286;SDS011;9269;50.838;12.094;2022-11-15T01:18:39;16.50;;;13.17;;
18286;SDS011;9269;50.838;12.094;2022-11-15T01:21:09;16.20;;;13.03;;
18286;SDS011;9269;50.838;12.094;2022-11-15T01:23:39;16.77;;;13.77;;
18286;SDS011;9269;50.838;12.094;2022-11-15T01:26:10;17.23;;;13.03;;
18286;SDS011;9269;50.838;12.094;2022-11-15T01:28:41;17.73;;;13.80;;
18286;SDS011;9269;50.838;12.094;2022-11-15T01:31:11;15.90;;;13.07;;
18286;SDS011;9269;50.838;12.094;2022-11-15T01:33:42;17.97;;;13.93;;
18286;SDS011;9269;50.838;12.094;2022-11-15T01:36:11;17.50;;;13.33;;
18286;SDS011;9269;50.838;12.094;2022-11-15T01:38:41;16.70;;;12.80;;
18286;SDS011;9269;50.838;12.094;2022-11-15T01:41:14;18.43;;;13.53;;
18286;SDS011;9269;50.838;12.094;2022-11-15T01:43:45;18.20;;;13.87;;
18286;SDS011;9269;50.838;12.094;2022-11-15T01:46:19;20.17;;;14.47;;
18286;SDS011;9269;50.838;12.094;2022-11-15T01:48:55;19.67;;;13.77;;
18286;SDS011;9269;50.838;12.094;2022-11-15T01:51:26;18.67;;;13.77;;
18286;SDS011;9269;50.838;12.094;2022-11-15T01:53:59;19.17;;;13.70;;
18286;SDS011;9269;50.838;12.094;2022-11-15T01:56:31;19.10;;;13.73;;
18286;SDS011;9269;50.838;12.094;2022-11-15T01:59:05;18.93;;;13.77;;
18286;SDS011;9269;50.838;12.094;2022-11-15T02:01:35;18.10;;;13.23;;
18286;SDS011;9269;50.838;12.094;2022-11-15T02:04:06;18.00;;;13.13;;
18286;SDS011;9269;50.838;12.094;2022-11-15T02:06:39;19.30;;;12.70;;
18286;SDS011;9269;50.838;12.094;2022-11-15T02:09:10;19.83;;;13.77;;
18286;SDS011;9269;50.838;12.094;2022-11-15T02:11:41;16.57;;;11.90;;
18286;SDS011;9269;50.838;12.094;2022-11-15T02:14:15;16.53;;;13.10;;
18286;SDS011;9269;50.838;12.094;2022-11-15T02:16:48;19.47;;;13.77;;
18286;SDS011;9269;50.838;12.094;2022-11-15T02:19:29;17.67;;;13.23;;
18286;SDS011;9269;50.838;12.094;2022-11-15T02:22:21;21.17;;;13.53;;
18286;SDS011;9269;50.838;12.094;2022-11-15T02:25:03;17.67;;;13.07;;
18286;SDS011;9269;50.838;12.094;2022-11-15T02:31:00;21.87;;;14.03;;
18286;SDS011;9269;50.838;12.094;2022-11-15T02:33:35;17.87;;;13.53;;
18286;SDS011;9269;50.838;12.094;2022-11-15T02:36:11;17.37;;;13.63;;
18286;SDS011;9269;50.838;12.094;2022-11-15T02:38:46;18.43;;;13.10;;
18286;SDS011;9269;50.838;12.094;2022-11-15T02:41:23;17.27;;;13.00;;
18286;SDS011;9269;50.838;12.094;2022-11-15T02:43:58;18.10;;;13.43;;
18286;SDS011;9269;50.838;12.094;2022-11-15T02:46:33;18.30;;;13.53;;
18286;SDS011;9269;50.838;12.094;2022-11-15T02:49:22;19.07;;;14.20;;
18286;SDS011;9269;50.838;12.094;2022-11-15T02:51:53;17.97;;;13.70;;
18286;SDS011;9269;50.838;12.094;2022-11-15T02:54:24;17.63;;;12.47;;
18286;SDS011;9269;50.838;12.094;2022-11-15T02:56:55;15.90;;;12.90;;
18286;SDS011;9269;50.838;12.094;2022-11-15T02:59:54;15.53;;;11.90;;
18286;SDS011;9269;50.838;12.094;2022-11-15T03:02:35;16.30;;;12.27;;
18286;SDS011;9269;50.838;12.094;2022-11-15T03:05:25;16.50;;;12.10;;
18286;SDS011;9269;50.838;12.094;2022-11-15T03:08:04;17.53;;;13.00;;
18286;SDS011;9269;50.838;12.094;2022-11-15T03:10:41;16.80;;;12.07;;
18286;SDS011;9269;50.838;12.094;2022-11-15T03:13:18;17.83;;;13.07;;
18286;SDS011;9269;50.838;12.094;2022-11-15T03:15:53;17.20;;;12.60;;
18286;SDS011;9269;50.838;12.094;2022-11-15T03:18:33;16.27;;;12.17;;
18286;SDS011;9269;50.838;12.094;2022-11-15T03:21:05;15.23;;;11.80;;
18286;SDS011;9269;50.838;12.094;2022-11-15T03:23:36;15.90;;;12.07;;
18286;SDS011;9269;50.838;12.094;2022-11-15T03:26:07;16.30;;;12.00;;
18286;SDS011;9269;50.838;12.094;2022-11-15T03:28:41;14.87;;;11.93;;
18286;SDS011;9269;50.838;12.094;2022-11-15T03:31:15;17.77;;;13.00;;
18286;SDS011;9269;50.838;12.094;2022-11-15T03:34:06;16.17;;;12.13;;
18286;SDS011;9269;50.838;12.094;2022-11-15T03:36:39;17.43;;;12.33;;
18286;SDS011;9269;50.838;12.094;2022-11-15T03:39:08;15.30;;;12.23;;
18286;SDS011;9269;50.838;12.094;2022-11-15T03:41:43;14.30;;;11.73;;
18286;SDS011;9269;50.838;12.094;2022-11-15T03:44:17;16.73;;;12.20;;
18286;SDS011;9269;50.838;12.094;2022-11-15T03:46:55;16.23;;;13.03;;
18286;SDS011;9269;50.838;12.094;2022-11-15T03:49:30;16.07;;;12.37;;
18286;SDS011;9269;50.838;12.094;2022-11-15T03:52:02;15.20;;;12.60;;
18286;SDS011;9269;50.838;12.094;2022-11-15T03:54:32;18.40;;;12.43;;
18286;SDS011;9269;50.838;12.094;2022-11-15T03:57:00;16.37;;;12.03;;
18286;SDS011;9269;50.838;12.094;2022-11-15T03:59:29;14.03;;;11.87;;
18286;SDS011;9269;50.838;12.094;2022-11-15T04:01:57;15.70;;;12.10;;
18286;SDS011;9269;50.838;12.094;2022-11-15T04:04:26;16.10;;;12.03;;
18286;SDS011;9269;50.838;12.094;2022-11-15T04:06:56;16.07;;;11.77;;
18286;SDS011;9269;50.838;12.094;2022-11-15T04:09:24;14.50;;;11.07;;
18286;SDS011;9269;50.838;12.094;2022-11-15T04:11:53;14.53;;;11.13;;
18286;SDS011;9269;50.838;12.094;2022-11-15T04:14:22;14.23;;;10.87;;
18286;SDS011;9269;50.838;12.094;2022-11-15T04:16:50;14.40;;;11.50;;
18286;SDS011;9269;50.838;12.094;2022-11-15T04:19:19;12.57;;;10.93;;
18286;SDS011;9269;50.838;12.094;2022-11-15T04:22:08;13.50;;;11.10;;
18286;SDS011;9269;50.838;12.094;2022-11-15T04:24:53;15.77;;;11.80;;
18286;SDS011;9269;50.838;12.094;2022-11-15T04:27:22;17.17;;;10.67;;
18286;SDS011;9269;50.838;12.094;2022-11-15T04:29:51;14.90;;;10.67;;
18286;SDS011;9269;50.838;12.094;2022-11-15T04:32:19;12.17;;;10.50;;
18286;SDS011;9269;50.838;12.094;2022-11-15T04:34:48;14.60;;;10.50;;
18286;SDS011;9269;50.838;12.094;2022-11-15T04:37:18;12.20;;;9.60;;
18286;SDS011;9269;50.838;12.094;2022-11-15T04:39:47;12.80;;;10.63;;
18286;SDS011;9269;50.838;12.094;2022-11-15T04:42:15;14.43;;;10.53;;
18286;SDS011;9269;50.838;12.094;2022-11-15T04:44:44;13.50;;;10.97;;
18286;SDS011;9269;50.838;12.094;2022-11-15T04:47:12;14.40;;;12.30;;
18286;SDS011;9269;50.838;12.094;2022-11-15T04:49:41;15.67;;;12.13;;
18286;SDS011;9269;50.838;12.094;2022-11-15T04:52:10;14.27;;;11.87;;
18286;SDS011;9269;50.838;12.094;2022-11-15T04:54:40;13.00;;;10.20;;
18286;SDS011;9269;50.838;12.094;2022-11-15T04:57:09;12.93;;;10.17;;
18286;SDS011;9269;50.838;12.094;2022-11-15T04:59:38;12.87;;;10.80;;
18286;SDS011;9269;50.838;12.094;2022-11-15T05:02:06;12.53;;;10.07;;
18286;SDS011;9269;50.838;12.094;2022-11-15T05:04:35;13.83;;;9.97;;
18286;SDS011;9269;50.838;12.094;2022-11-15T05:07:02;14.13;;;10.67;;
18286;SDS011;9269;50.838;12.094;2022-11-15T05:09:31;13.03;;;9.87;;
18286;SDS011;9269;50.838;12.094;2022-11-15T05:12:01;13.23;;;10.20;;
18286;SDS011;9269;50.838;12.094;2022-11-15T05:14:30;12.50;;;9.40;;
18286;SDS011;9269;50.838;12.094;2022-11-15T05:16:59;11.67;;;9.73;;
18286;SDS011;9269;50.838;12.094;2022-11-15T05:19:29;12.30;;;10.47;;
18286;SDS011;9269;50.838;12.094;2022-11-15T05:21:57;12.43;;;9.70;;
18286;SDS011;9269;50.838;12.094;2022-11-15T05:24:27;14.07;;;10.63;;
18286;SDS011;9269;50.838;12.094;2022-11-15T05:26:55;14.00;;;10.43;;
18286;SDS011;9269;50.838;12.094;2022-11-15T05:29:25;13.67;;;10.23;;
18286;SDS011;9269;50.838;12.094;2022-11-15T05:31:54;13.20;;;10.03;;
18286;SDS011;9269;50.838;12.094;2022-11-15T05:34:23;15.43;;;9.70;;
18286;SDS011;9269;50.838;12.094;2022-11-15T05:36:53;11.50;;;9.97;;
18286;SDS011;9269;50.838;12.094;2022-11-15T05:39:22;11.53;;;9.40;;
18286;SDS011;9269;50.838;12.094;2022-11-15T05:41:52;11.90;;;9.70;;
18286;SDS011;9269;50.838;12.094;2022-11-15T05:44:26;11.77;;;9.57;;
18286;SDS011;9269;50.838;12.094;2022-11-15T05:46:55;11.10;;;9.10;;
18286;SDS011;9269;50.838;12.094;2022-11-15T05:49:26;12.80;;;9.23;;
18286;SDS011;9269;50.838;12.094;2022-11-15T05:51:58;11.63;;;10.00;;
18286;SDS011;9269;50.838;12.094;2022-11-15T05:54:27;12.30;;;9.87;;
18286;SDS011;9269;50.838;12.094;2022-11-15T05:56:55;13.33;;;9.13;;
18286;SDS011;9269;50.838;12.094;2022-11-15T05:59:24;10.70;;;8.97;;
18286;SDS011;9269;50.838;12.094;2022-11-15T06:01:54;12.20;;;9.37;;
18286;SDS011;9269;50.838;12.094;2022-11-15T06:04:22;11.17;;;9.57;;
18286;SDS011;9269;50.838;12.094;2022-11-15T06:06:51;11.97;;;9.43;;
18286;SDS011;9269;50.838;12.094;2022-11-15T06:09:19;12.07;;;9.10;;
18286;SDS011;9269;50.838;12.094;2022-11-15T06:11:48;10.80;;;9.47;;
18286;SDS011;9269;50.838;12.094;2022-11-15T06:14:16;10.47;;;9.37;;
18286;SDS011;9269;50.838;12.094;2022-11-15T06:16:45;12.40;;;9.73;;
18286;SDS011;9269;50.838;12.094;2022-11-15T06:19:15;12.43;;;9.80;;
18286;SDS011;9269;50.838;12.094;2022-11-15T06:21:44;12.27;;;9.77;;
18286;SDS011;9269;50.838;12.094;2022-11-15T06:24:13;13.40;;;9.37;;
18286;SDS011;9269;50.838;12.094;2022-11-15T06:26:42;12.77;;;10.23;;
18286;SDS011;9269;50.838;12.094;2022-11-15T06:29:10;13.77;;;11.13;;
18286;SDS011;9269;50.838;12.094;2022-11-15T06:31:39;11.97;;;9.50;;
18286;SDS011;9269;50.838;12.094;2022-11-15T06:34:07;15.17;;;11.13;;
18286;SDS011;9269;50.838;12.094;2022-11-15T06:36:37;14.27;;;11.07;;
18286;SDS011;9269;50.838;12.094;2022-11-15T06:39:17;15.73;;;11.47;;
18286;SDS011;9269;50.838;12.094;2022-11-15T06:41:45;13.50;;;10.93;;
18286;SDS011;9269;50.838;12.094;2022-11-15T06:44:14;15.13;;;10.63;;
18286;SDS011;9269;50.838;12.094;2022-11-15T06:46:43;14.00;;;10.40;;
18286;SDS011;9269;50.838;12.094;2022-11-15T06:49:11;12.97;;;10.67;;
18286;SDS011;9269;50.838;12.094;2022-11-15T06:51:41;16.47;;;12.17;;
18286;SDS011;9269;50.838;12.094;2022-11-15T06:54:10;17.40;;;12.67;;
18286;SDS011;9269;50.838;12.094;2022-11-15T06:56:38;16.27;;;12.90;;
18286;SDS011;9269;50.838;12.094;2022-11-15T06:59:07;14.20;;;11.23;;
18286;SDS011;9269;50.838;12.094;2022-11-15T07:01:35;14.73;;;11.23;;
18286;SDS011;9269;50.838;12.094;2022-11-15T07:04:05;16.77;;;10.57;;
18286;SDS011;9269;50.838;12.094;2022-11-15T07:06:34;12.83;;;10.57;;
18286;SDS011;9269;50.838;12.094;2022-11-15T07:09:04;11.50;;;10.17;;
18286;SDS011;9269;50.838;12.094;2022-11-15T07:11:33;12.20;;;10.33;;
18286;SDS011;9269;50.838;12.094;2022-11-15T07:14:01;11.67;;;9.57;;
18286;SDS011;9269;50.838;12.094;2022-11-15T07:16:29;11.37;;;9.93;;
18286;SDS011;9269;50.838;12.094;2022-11-15T07:18:58;10.23;;;9.07;;
18286;SDS011;9269;50.838;12.094;2022-11-15T07:21:28;11.07;;;9.00;;
18286;SDS011;9269;50.838;12.094;2022-11-15T07:23:57;10.73;;;9.40;;
18286;SDS011;9269;50.838;12.094;2022-11-15T07:26:27;10.93;;;8.83;;
18286;SDS011;9269;50.838;12.094;2022-11-15T07:28:56;11.63;;;8.77;;
18286;SDS011;9269;50.838;12.094;2022-11-15T07:31:25;10.43;;;8.60;;
18286;SDS011;9269;50.838;12.094;2022-11-15T07:33:53;11.87;;;9.70;;
18286;SDS011;9269;50.838;12.094;2022-11-15T07:36:21;12.00;;;9.80;;
18286;SDS011;9269;50.838;12.094;2022-11-15T07:38:50;10.63;;;9.03;;
18286;SDS011;9269;50.838;12.094;2022-11-15T07:41:18;11.83;;;9.03;;
18286;SDS011;9269;50.838;12.094;2022-11-15T07:43:48;11.07;;;9.40;;
18286;SDS011;9269;50.838;12.094;2022-11-15T07:46:20;11.23;;;9.00;;
18286;SDS011;9269;50.838;12.094;2022-11-15T07:48:49;10.57;;;8.83;;
18286;SDS011;9269;50.838;12.094;2022-11-15T07:51:18;13.13;;;9.33;;
18286;SDS011;9269;50.838;12.094;2022-11-15T07:53:46;10.53;;;9.10;;
18286;SDS011;9269;50.838;12.094;2022-11-15T07:56:15;12.50;;;9.50;;
18286;SDS011;9269;50.838;12.094;2022-11-15T07:58:45;10.53;;;8.83;;
18286;SDS011;9269;50.838;12.094;2022-11-15T08:01:15;11.53;;;9.13;;
18286;SDS011;9269;50.838;12.094;2022-11-15T08:03:45;12.67;;;9.90;;
18286;SDS011;9269;50.838;12.094;2022-11-15T08:06:14;10.00;;;9.00;;
18286;SDS011;9269;50.838;12.094;2022-11-15T08:08:42;12.60;;;10.47;;
18286;SDS011;9269;50.838;12.094;2022-11-15T08:11:11;12.63;;;10.10;;
18286;SDS011;9269;50.838;12.094;2022-11-15T08:13:39;12.40;;;10.13;;
18286;SDS011;9269;50.838;12.094;2022-11-15T08:16:08;11.50;;;9.87;;
18286;SDS011;9269;50.838;12.094;2022-11-15T08:18:40;16.33;;;10.33;;
18286;SDS011;9269;50.838;12.094;2022-11-15T08:21:09;10.70;;;9.40;;
18286;SDS011;9269;50.838;12.094;2022-11-15T08:23:44;10.33;;;8.80;;
18286;SDS011;9269;50.838;12.094;2022-11-15T08:26:13;10.73;;;9.20;;
18286;SDS011;9269;50.838;12.094;2022-11-15T08:28:45;10.47;;;9.30;;
18286;SDS011;9269;50.838;12.094;2022-11-15T08:31:14;13.03;;;8.50;;
18286;SDS011;9269;50.838;12.094;2022-11-15T08:33:45;9.30;;;8.17;;
18286;SDS011;9269;50.838;12.094;2022-11-15T08:36:14;10.93;;;8.77;;
18286;SDS011;9269;50.838;12.094;2022-11-15T08:38:44;9.97;;;8.37;;
18286;SDS011;9269;50.838;12.094;2022-11-15T08:41:14;10.33;;;8.90;;
18286;SDS011;9269;50.838;12.094;2022-11-15T08:43:50;10.97;;;9.30;;
18286;SDS011;9269;50.838;12.094;2022-11-15T08:46:18;9.33;;;8.33;;
18286;SDS011;9269;50.838;12.094;2022-11-15T08:48:48;10.80;;;8.97;;
18286;SDS011;9269;50.838;12.094;2022-11-15T08:51:17;10.73;;;9.30;;
18286;SDS011;9269;50.838;12.094;2022-11-15T08:53:46;10.60;;;9.03;;
18286;SDS011;9269;50.838;12.094;2022-11-15T08:56:15;9.63;;;8.73;;
18286;SDS011;9269;50.838;12.094;2022-11-15T08:58:43;9.90;;;8.83;;
18286;SDS011;9269;50.838;12.094;2022-11-15T09:01:16;10.27;;;9.13;;
18286;SDS011;9269;50.838;12.094;2022-11-15T09:03:46;9.37;;;8.37;;
18286;SDS011;9269;50.838;12.094;2022-11-15T09:06:16;11.30;;;8.33;;
18286;SDS011;9269;50.838;12.094;2022-11-15T09:08:45;9.43;;;8.27;;
18286;SDS011;9269;50.838;12.094;2022-11-15T09:11:16;9.07;;;8.17;;
18286;SDS011;9269;50.838;12.094;2022-11-15T09:13:47;9.43;;;8.43;;
18286;SDS011;9269;50.838;12.094;2022-11-15T09:16:16;8.73;;;7.83;;
18286;SDS011;9269;50.838;12.094;2022-11-15T09:18:45;8.53;;;7.37;;
18286;SDS011;9269;50.838;12.094;2022-11-15T09:21:15;8.13;;;7.37;;
18286;SDS011;9269;50.838;12.094;2022-11-15T09:23:44;9.27;;;7.27;;
18286;SDS011;9269;50.838;12.094;2022-11-15T09:26:12;8.83;;;7.00;;
18286;SDS011;9269;50.838;12.094;2022-11-15T09:28:41;7.80;;;7.03;;
18286;SDS011;9269;50.838;12.094;2022-11-15T09:31:09;7.70;;;6.90;;
18286;SDS011;9269;50.838;12.094;2022-11-15T09:33:43;8.17;;;6.80;;
18286;SDS011;9269;50.838;12.094;2022-11-15T09:36:12;8.40;;;7.50;;
18286;SDS011;9269;50.838;12.094;2022-11-15T09:38:43;7.60;;;6.83;;
18286;SDS011;9269;50.838;12.094;2022-11-15T09:41:19;7.73;;;6.33;;
18286;SDS011;9269;50.838;12.094;2022-11-15T09:44:08;7.60;;;6.90;;
18286;SDS011;9269;50.838;12.094;2022-11-15T09:46:55;7.83;;;7.00;;
18286;SDS011;9269;50.838;12.094;2022-11-15T09:49:30;8.90;;;7.00;;
18286;SDS011;9269;50.838;12.094;2022-11-15T09:51:59;9.50;;;6.77;;
18286;SDS011;9269;50.838;12.094;2022-11-15T09:54:30;7.20;;;6.50;;
18286;SDS011;9269;50.838;12.094;2022-11-15T09:57:22;7.77;;;5.90;;
18286;SDS011;9269;50.838;12.094;2022-11-15T10:00:04;6.10;;;5.50;;
18286;SDS011;9269;50.838;12.094;2022-11-15T10:03:02;7.27;;;5.53;;
18286;SDS011;9269;50.838;12.094;2022-11-15T10:05:40;6.53;;;5.83;;
18286;SDS011;9269;50.838;12.094;2022-11-15T10:08:13;6.90;;;5.80;;
18286;SDS011;9269;50.838;12.094;2022-11-15T10:10:52;6.00;;;4.97;;
18286;SDS011;9269;50.838;12.094;2022-11-15T10:13:44;13.87;;;5.90;;
18286;SDS011;9269;50.838;12.094;2022-11-15T10:16:24;6.00;;;5.00;;
18286;SDS011;9269;50.838;12.094;2022-11-15T10:19:11;5.43;;;4.90;;
18286;SDS011;9269;50.838;12.094;2022-11-15T10:21:50;5.13;;;4.60;;
18286;SDS011;9269;50.838;12.094;2022-11-15T10:24:28;6.03;;;4.43;;
18286;SDS011;9269;50.838;12.094;2022-11-15T10:27:06;5.07;;;4.60;;
18286;SDS011;9269;50.838;12.094;2022-11-15T10:29:42;8.27;;;4.30;;
18286;SDS011;9269;50.838;12.094;2022-11-15T10:32:12;4.87;;;4.37;;
18286;SDS011;9269;50.838;12.094;2022-11-15T10:34:42;5.23;;;4.43;;
18286;SDS011;9269;50.838;12.094;2022-11-15T10:37:10;6.23;;;4.40;;
18286;SDS011;9269;50.838;12.094;2022-11-15T10:39:39;6.07;;;4.77;;
18286;SDS011;9269;50.838;12.094;2022-11-15T10:42:16;6.30;;;4.37;;
18286;SDS011;9269;50.838;12.094;2022-11-15T10:44:51;5.37;;;4.57;;
18286;SDS011;9269;50.838;12.094;2022-11-15T10:47:21;5.00;;;4.53;;
18286;SDS011;9269;50.838;12.094;2022-11-15T10:49:58;7.30;;;4.90;;
18286;SDS011;9269;50.838;12.094;2022-11-15T10:52:28;5.13;;;4.50;;
18286;SDS011;9269;50.838;12.094;2022-11-15T10:55:01;4.70;;;4.30;;
18286;SDS011;9269;50.838;12.094;2022-11-15T10:57:37;5.23;;;4.33;;
18286;SDS011;9269;50.838;12.094;2022-11-15T11:00:07;4.97;;;4.47;;
18286;SDS011;9269;50.838;12.094;2022-11-15T11:03:05;5.00;;;4.50;;
18286;SDS011;9269;50.838;12.094;2022-11-15T11:05:48;5.10;;;4.70;;
18286;SDS011;9269;50.838;12.094;2022-11-15T11:08:32;5.67;;;4.77;;
18286;SDS011;9269;50.838;12.094;2022-11-15T11:11:01;4.27;;;3.87;;
18286;SDS011;9269;50.838;12.094;2022-11-15T11:13:33;5.50;;;4.70;;
18286;SDS011;9269;50.838;12.094;2022-11-15T11:16:18;5.10;;;4.60;;
18286;SDS011;9269;50.838;12.094;2022-11-15T11:18:56;4.60;;;4.20;;
18286;SDS011;9269;50.838;12.094;2022-11-15T11:21:35;4.13;;;3.73;;
18286;SDS011;9269;50.838;12.094;2022-11-15T11:24:13;4.60;;;4.20;;
18286;SDS011;9269;50.838;12.094;2022-11-15T11:26:57;5.33;;;4.20;;
18286;SDS011;9269;50.838;12.094;2022-11-15T11:29:49;4.87;;;4.37;;
18286;SDS011;9269;50.838;12.094;2022-11-15T11:32:36;4.80;;;4.30;;
18286;SDS011;9269;50.838;12.094;2022-11-15T11:35:22;4.77;;;3.93;;
18286;SDS011;9269;50.838;12.094;2022-11-15T11:37:59;4.23;;;3.83;;
18286;SDS011;9269;50.838;12.094;2022-11-15T11:40:39;4.23;;;3.83;;
18286;SDS011;9269;50.838;12.094;2022-11-15T11:43:13;4.27;;;3.87;;
18286;SDS011;9269;50.838;12.094;2022-11-15T11:45:57;3.87;;;3.53;;
18286;SDS011;9269;50.838;12.094;2022-11-15T11:48:41;4.87;;;3.90;;
18286;SDS011;9269;50.838;12.094;2022-11-15T11:51:14;4.33;;;3.90;;
18286;SDS011;9269;50.838;12.094;2022-11-15T11:53:48;4.87;;;4.40;;
18286;SDS011;9269;50.838;12.094;2022-11-15T11:56:24;4.23;;;3.87;;
18286;SDS011;9269;50.838;12.094;2022-11-15T11:58:56;4.40;;;4.00;;
18286;SDS011;9269;50.838;12.094;2022-11-15T12:01:34;4.50;;;4.10;;
18286;SDS011;9269;50.838;12.094;2022-11-15T12:04:09;4.33;;;3.80;;
18286;SDS011;9269;50.838;12.094;2022-11-15T12:06:42;4.23;;;3.67;;
18286;SDS011;9269;50.838;12.094;2022-11-15T12:09:17;4.03;;;3.63;;
18286;SDS011;9269;50.838;12.094;2022-11-15T12:11:51;4.20;;;3.80;;
18286;SDS011;9269;50.838;12.094;2022-11-15T12:14:28;4.03;;;3.60;;
18286;SDS011;9269;50.838;12.094;2022-11-15T12:17:02;4.00;;;3.60;;
18286;SDS011;9269;50.838;12.094;2022-11-15T12:19:31;6.47;;;4.03;;
18286;SDS011;9269;50.838;12.094;2022-11-15T12:22:00;4.23;;;3.83;;
18286;SDS011;9269;50.838;12.094;2022-11-15T12:24:34;3.93;;;3.53;;
18286;SDS011;9269;50.838;12.094;2022-11-15T12:27:14;4.90;;;3.60;;
18286;SDS011;9269;50.838;12.094;2022-11-15T12:29:52;4.00;;;3.60;;
18286;SDS011;9269;50.838;12.094;2022-11-15T12:32:26;3.70;;;3.40;;
18286;SDS011;9269;50.838;12.094;2022-11-15T12:35:00;4.90;;;3.73;;
18286;SDS011;9269;50.838;12.094;2022-11-15T12:40:21;3.57;;;3.27;;
18286;SDS011;9269;50.838;12.094;2022-11-15T12:46:08;3.40;;;3.10;;
18286;SDS011;9269;50.838;12.094;2022-11-15T12:48:51;4.93;;;3.60;;
18286;SDS011;9269;50.838;12.094;2022-11-15T12:57:29;4.00;;;3.03;;
18286;SDS011;9269;50.838;12.094;2022-11-15T13:00:00;3.70;;;3.23;;
18286;SDS011;9269;50.838;12.094;2022-11-15T13:02:34;3.50;;;3.20;;
18286;SDS011;9269;50.838;12.094;2022-11-15T13:08:37;4.50;;;3.60;;
18286;SDS011;9269;50.838;12.094;2022-11-15T13:17:27;3.87;;;3.30;;
18286;SDS011;9269;50.838;12.094;2022-11-15T13:20:18;4.83;;;3.30;;
18286;SDS011;9269;50.838;12.094;2022-11-15T13:22:51;5.60;;;3.67;;
18286;SDS011;9269;50.838;12.094;2022-11-15T13:25:27;3.90;;;3.17;;
18286;SDS011;9269;50.838;12.094;2022-11-15T13:28:20;3.40;;;3.10;;
18286;SDS011;9269;50.838;12.094;2022-11-15T13:30:52;4.93;;;3.43;;
18286;SDS011;9269;50.838;12.094;2022-11-15T13:33:23;4.23;;;3.83;;
18286;SDS011;9269;50.838;12.094;2022-11-15T13:36:03;3.30;;;3.00;;
18286;SDS011;9269;50.838;12.094;2022-11-15T13:38:34;3.97;;;3.10;;
18286;SDS011;9269;50.838;12.094;2022-11-15T13:41:11;3.40;;;3.10;;
18286;SDS011;9269;50.838;12.094;2022-11-15T13:43:47;3.30;;;3.00;;
18286;SDS011;9269;50.838;12.094;2022-11-15T13:46:17;4.13;;;3.27;;
18286;SDS011;9269;50.838;12.094;2022-11-15T13:48:50;3.73;;;3.00;;
18286;SDS011;9269;50.838;12.094;2022-11-15T13:51:23;3.83;;;3.00;;
18286;SDS011;9269;50.838;12.094;2022-11-15T13:53:57;4.20;;;3.30;;
18286;SDS011;9269;50.838;12.094;2022-11-15T13:56:29;3.97;;;3.50;;
18286;SDS011;9269;50.838;12.094;2022-11-15T13:59:01;4.33;;;3.40;;
18286;SDS011;9269;50.838;12.094;2022-11-15T14:01:36;5.70;;;3.40;;
18286;SDS011;9269;50.838;12.094;2022-11-15T14:04:11;3.60;;;3.30;;
18286;SDS011;9269;50.838;12.094;2022-11-15T14:06:48;4.67;;;3.50;;
18286;SDS011;9269;50.838;12.094;2022-11-15T14:09:28;5.67;;;3.70;;
18286;SDS011;9269;50.838;12.094;2022-11-15T14:12:00;4.10;;;3.70;;
18286;SDS011;9269;50.838;12.094;2022-11-15T14:14:47;5.60;;;3.67;;
18286;SDS011;9269;50.838;12.094;2022-11-15T14:17:19;3.90;;;3.53;;
18286;SDS011;9269;50.838;12.094;2022-11-15T14:19:50;4.20;;;3.33;;
18286;SDS011;9269;50.838;12.094;2022-11-15T14:22:22;4.13;;;3.30;;
18286;SDS011;9269;50.838;12.094;2022-11-15T14:25:07;3.50;;;3.20;;
18286;SDS011;9269;50.838;12.094;2022-11-15T14:27:43;4.97;;;3.23;;
18286;SDS011;9269;50.838;12.094;2022-11-15T14:30:32;4.43;;;3.50;;
18286;SDS011;9269;50.838;12.094;2022-11-15T14:33:00;4.33;;;3.50;;
18286;SDS011;9269;50.838;12.094;2022-11-15T14:35:32;4.97;;;3.97;;
18286;SDS011;9269;50.838;12.094;2022-11-15T14:38:03;3.80;;;3.47;;
18286;SDS011;9269;50.838;12.094;2022-11-15T14:40:31;3.73;;;3.43;;
18286;SDS011;9269;50.838;12.094;2022-11-15T14:43:00;3.77;;;3.47;;
18286;SDS011;9269;50.838;12.094;2022-11-15T14:45:29;4.77;;;3.67;;
18286;SDS011;9269;50.838;12.094;2022-11-15T14:47:58;4.53;;;3.40;;
18286;SDS011;9269;50.838;12.094;2022-11-15T14:50:27;3.73;;;3.27;;
18286;SDS011;9269;50.838;12.094;2022-11-15T14:52:55;3.40;;;3.10;;
18286;SDS011;9269;50.838;12.094;2022-11-15T14:55:26;3.83;;;3.43;;
18286;SDS011;9269;50.838;12.094;2022-11-15T14:57:56;4.30;;;3.20;;
18286;SDS011;9269;50.838;12.094;2022-11-15T15:00:25;3.23;;;2.93;;
18286;SDS011;9269;50.838;12.094;2022-11-15T15:03:01;3.60;;;3.20;;
18286;SDS011;9269;50.838;12.094;2022-11-15T15:05:32;3.87;;;3.57;;
18286;SDS011;9269;50.838;12.094;2022-11-15T15:08:02;3.90;;;3.50;;
18286;SDS011;9269;50.838;12.094;2022-11-15T15:10:33;5.30;;;3.60;;
18286;SDS011;9269;50.838;12.094;2022-11-15T15:13:08;4.20;;;3.73;;
18286;SDS011;9269;50.838;12.094;2022-11-15T15:15:43;4.30;;;3.90;;
18286;SDS011;9269;50.838;12.094;2022-11-15T15:18:12;4.17;;;3.73;;
18286;SDS011;9269;50.838;12.094;2022-11-15T15:20:41;4.93;;;3.60;;
18286;SDS011;9269;50.838;12.094;2022-11-15T15:23:16;4.40;;;3.70;;
18286;SDS011;9269;50.838;12.094;2022-11-15T15:25:47;4.20;;;3.80;;
18286;SDS011;9269;50.838;12.094;2022-11-15T15:28:17;4.97;;;3.93;;
18286;SDS011;9269;50.838;12.094;2022-11-15T15:30:45;6.63;;;6.03;;